»·PEaware :: N196EC KSMX-KWHP

N196EC :: KSMX-KWHP

FLIGHT INFORMATION

Flight Status: Arrived
Operator: Privately registered:
United States
More flights under this callsign
Pilot: Adrián R. (20842)
Aircraft: AERMACCHI WARRIOR
(F260)
More flights by this aircraft type
Origin: KSMX Santa Maria Pub/Capt Hancock
United States
Destination: KWHP Whiteman
United States
More flights between these airports :: More routes between these airports
Route: RZS V186 FIM
File this flight plan on PilotEdge
Remarks: TEC ROUTE SBAP37
Altitude:
(Current/Filed)
7,000ft
Speed:
(Current/Filed)
150kts
Departed: 30-Jan-19 09:25 AM
Arrived: 30-Jan-19 10:14 AM
Distance/Time
Traveled:
108nm/0:49
Distance/Time
To Go:
Arrived

Flight Plot

Page will automatically refresh every two minutes.


Map Options




Map Legend


Flown Route
Filed Route
Departure Airport
Arrival Airport
Navaid (VOR, NDB)
Fix

Horizontal Profiles

Position Reports

Time Latitude Longitude Heading Altitude Ground
Speed
30-Jan-19 09:07 34.901757 -120.452484 228 264ft 0kts
30-Jan-19 09:08 34.901757 -120.452485 228 264ft 0kts
30-Jan-19 09:09 34.901757 -120.452485 228 264ft 0kts
30-Jan-19 09:10 34.901757 -120.452485 228 264ft 0kts
30-Jan-19 09:11 34.901757 -120.452485 228 264ft 0kts
30-Jan-19 09:12 34.901757 -120.452485 228 264ft 0kts
30-Jan-19 09:13 34.901757 -120.452485 228 264ft 0kts
30-Jan-19 09:14 34.901757 -120.452485 228 264ft 0kts
30-Jan-19 09:15 34.901757 -120.452485 228 264ft 0kts
30-Jan-19 09:16 34.901757 -120.452485 228 264ft 0kts
30-Jan-19 09:17 34.901757 -120.452485 228 264ft 0kts
30-Jan-19 09:18 34.900903 -120.453080 135 264ft 9kts
30-Jan-19 09:19 34.898219 -120.449887 135 264ft 16kts
30-Jan-19 09:20 34.894789 -120.445761 137 264ft 17kts
30-Jan-19 09:21 34.893405 -120.444961 196 264ft 0kts
30-Jan-19 09:22 34.893405 -120.444961 196 264ft 0kts
30-Jan-19 09:23 34.893257 -120.445028 205 264ft 2kts
30-Jan-19 09:24 34.899385 -120.453723 318 447ft 104kts
30-Jan-19 09:25 34.920769 -120.444786 103 1885ft 134kts
30-Jan-19 09:26 34.907054 -120.401023 111 3202ft 139kts
30-Jan-19 09:27 34.893034 -120.357287 111 4504ft 136kts
30-Jan-19 09:28 34.879231 -120.314173 111 5821ft 132kts
30-Jan-19 09:29 34.862765 -120.273835 134 6913ft 137kts
30-Jan-19 09:30 34.833571 -120.235811 130 7002ft 148kts
30-Jan-19 09:31 34.805140 -120.194689 129 7005ft 149kts
30-Jan-19 09:32 34.777015 -120.154143 129 7007ft 153kts
30-Jan-19 09:33 34.749206 -120.114128 129 7008ft 153kts
30-Jan-19 09:34 34.721219 -120.073899 129 7008ft 153kts
30-Jan-19 09:35 34.693586 -120.034219 129 7009ft 153kts
30-Jan-19 09:36 34.664936 -119.993129 129 7008ft 153kts
30-Jan-19 09:37 34.636518 -119.952413 129 7001ft 154kts
30-Jan-19 09:38 34.608061 -119.911696 129 6993ft 154kts
30-Jan-19 09:39 34.579599 -119.871019 130 6985ft 154kts
30-Jan-19 09:40 34.551634 -119.831101 130 6977ft 154kts
30-Jan-19 09:41 34.523566 -119.791219 130 6969ft 154kts
30-Jan-19 09:42 34.497623 -119.749605 122 6963ft 154kts
30-Jan-19 09:43 34.474363 -119.706569 123 6963ft 154kts
30-Jan-19 09:44 34.450768 -119.663240 123 6963ft 154kts
30-Jan-19 09:45 34.426986 -119.619717 123 6963ft 154kts
30-Jan-19 09:46 34.403311 -119.576436 123 6963ft 154kts
30-Jan-19 09:47 34.379581 -119.533058 123 6964ft 154kts
30-Jan-19 09:48 34.355560 -119.489313 123 6966ft 154kts
30-Jan-19 09:49 34.331681 -119.445641 122 6968ft 154kts
30-Jan-19 09:50 34.315611 -119.399394 78 6972ft 153kts
30-Jan-19 09:51 34.322323 -119.348178 84 6971ft 153kts
30-Jan-19 09:52 34.326040 -119.294507 84 6972ft 153kts
30-Jan-19 09:53 34.326481 -119.242639 90 6972ft 153kts
30-Jan-19 09:54 34.320409 -119.191194 98 6972ft 154kts
30-Jan-19 09:55 34.313361 -119.139524 98 6972ft 154kts
30-Jan-19 09:56 34.306352 -119.088013 98 6972ft 155kts
30-Jan-19 09:57 34.299271 -119.036083 98 6972ft 155kts
30-Jan-19 09:58 34.292187 -118.984371 99 6972ft 155kts
30-Jan-19 09:59 34.285059 -118.932494 99 6972ft 156kts
30-Jan-19 10:00 34.277900 -118.880554 99 6972ft 156kts
30-Jan-19 10:01 34.270733 -118.828723 99 6972ft 156kts
30-Jan-19 10:02 34.263525 -118.776756 98 6954ft 157kts
30-Jan-19 10:03 34.255880 -118.722487 99 5945ft 156kts
30-Jan-19 10:04 34.249135 -118.674496 98 4727ft 138kts
30-Jan-19 10:05 34.242758 -118.628426 98 4022ft 144kts
30-Jan-19 10:06 34.235770 -118.578636 98 4018ft 151kts
30-Jan-19 10:07 34.229471 -118.533979 98 4012ft 119kts
30-Jan-19 10:08 34.230348 -118.495302 80 4015ft 113kts
30-Jan-19 10:09 34.235700 -118.456661 78 3810ft 110kts
30-Jan-19 10:10 34.240981 -118.423474 39 2918ft 106kts
30-Jan-19 10:11 34.261966 -118.435420 322 1971ft 85kts
30-Jan-19 10:12 34.268255 -118.422689 143 1335ft 88kts
30-Jan-19 10:13 34.258035 -118.411492 340 1003ft 0kts
30-Jan-19 10:14 34.259208 -118.412710 320 1003ft 13kts
30-Jan-19 10:15 34.260934 -118.412772 316 1003ft 5kts
30-Jan-19 10:16 34.260691 -118.414109 319 1003ft 6kts
30-Jan-19 10:17 34.260870 -118.414266 320 1003ft 0kts
30-Jan-19 10:18 34.260870 -118.414266 320 1003ft 0kts

Navigation Log

Ident Type
Flight plan parsing failed, navigation log unavailable